sensor_id;sensor_type;location;lat;lon;timestamp;temperature;humidity
30534;DHT22;17318;52.390;9.754;2023-02-26T00:00:57;3.70;92.60
30534;DHT22;17318;52.390;9.754;2023-02-26T00:03:23;3.70;92.60
30534;DHT22;17318;52.390;9.754;2023-02-26T00:05:48;3.60;92.60
30534;DHT22;17318;52.390;9.754;2023-02-26T00:08:15;3.70;92.70
30534;DHT22;17318;52.390;9.754;2023-02-26T00:10:40;3.70;92.70
30534;DHT22;17318;52.390;9.754;2023-02-26T00:13:07;3.70;92.80
30534;DHT22;17318;52.390;9.754;2023-02-26T00:15:34;3.70;92.80
30534;DHT22;17318;52.390;9.754;2023-02-26T00:18:05;3.60;92.90
30534;DHT22;17318;52.390;9.754;2023-02-26T00:20:32;3.70;93.30
30534;DHT22;17318;52.390;9.754;2023-02-26T00:22:58;3.60;93.00
30534;DHT22;17318;52.390;9.754;2023-02-26T00:25:23;3.60;93.00
30534;DHT22;17318;52.390;9.754;2023-02-26T00:27:49;3.70;93.00
30534;DHT22;17318;52.390;9.754;2023-02-26T00:30:15;3.60;93.10
30534;DHT22;17318;52.390;9.754;2023-02-26T00:32:41;3.70;93.20
30534;DHT22;17318;52.390;9.754;2023-02-26T00:35:11;3.70;93.10
30534;DHT22;17318;52.390;9.754;2023-02-26T00:40:43;3.70;93.20
30534;DHT22;17318;52.390;9.754;2023-02-26T00:51:15;3.60;93.20
30534;DHT22;17318;52.390;9.754;2023-02-26T00:54:15;3.60;93.40
30534;DHT22;17318;52.390;9.754;2023-02-26T00:56:42;3.60;93.40
30534;DHT22;17318;52.390;9.754;2023-02-26T00:59:08;3.60;93.40
30534;DHT22;17318;52.390;9.754;2023-02-26T01:01:33;3.60;93.50
30534;DHT22;17318;52.390;9.754;2023-02-26T01:03:59;3.60;93.60
30534;DHT22;17318;52.390;9.754;2023-02-26T01:06:27;3.60;93.60
30534;DHT22;17318;52.390;9.754;2023-02-26T01:11:42;3.60;93.70
30534;DHT22;17318;52.390;9.754;2023-02-26T01:14:08;3.60;93.70
30534;DHT22;17318;52.390;9.754;2023-02-26T01:16:46;3.60;93.70
30534;DHT22;17318;52.390;9.754;2023-02-26T01:19:23;3.60;94.00
30534;DHT22;17318;52.390;9.754;2023-02-26T01:21:56;3.60;93.80
30534;DHT22;17318;52.390;9.754;2023-02-26T01:24:24;3.60;93.90
30534;DHT22;17318;52.390;9.754;2023-02-26T01:26:53;3.50;93.90
30534;DHT22;17318;52.390;9.754;2023-02-26T01:29:19;3.60;94.00
30534;DHT22;17318;52.390;9.754;2023-02-26T01:32:18;3.50;94.10
30534;DHT22;17318;52.390;9.754;2023-02-26T01:34:54;3.50;94.10
30534;DHT22;17318;52.390;9.754;2023-02-26T01:37:26;3.50;94.30
30534;DHT22;17318;52.390;9.754;2023-02-26T01:43:02;3.50;94.40
30534;DHT22;17318;52.390;9.754;2023-02-26T01:45:33;3.50;94.60
30534;DHT22;17318;52.390;9.754;2023-02-26T01:48:06;3.40;94.60
30534;DHT22;17318;52.390;9.754;2023-02-26T01:50:35;3.40;94.70
30534;DHT22;17318;52.390;9.754;2023-02-26T01:55:43;3.30;95.10
30534;DHT22;17318;52.390;9.754;2023-02-26T01:58:09;3.40;95.00
30534;DHT22;17318;52.390;9.754;2023-02-26T02:00:35;3.40;95.00
30534;DHT22;17318;52.390;9.754;2023-02-26T02:03:01;3.40;95.00
30534;DHT22;17318;52.390;9.754;2023-02-26T02:05:31;3.50;95.00
30534;DHT22;17318;52.390;9.754;2023-02-26T02:07:59;3.50;95.00
30534;DHT22;17318;52.390;9.754;2023-02-26T02:10:26;3.50;95.00
30534;DHT22;17318;52.390;9.754;2023-02-26T02:13:05;3.50;95.10
30534;DHT22;17318;52.390;9.754;2023-02-26T02:34:05;3.40;95.40
30534;DHT22;17318;52.390;9.754;2023-02-26T02:37:01;3.40;95.50
30534;DHT22;17318;52.390;9.754;2023-02-26T02:39:33;3.40;95.40
30534;DHT22;17318;52.390;9.754;2023-02-26T02:42:35;3.30;95.60
30534;DHT22;17318;52.390;9.754;2023-02-26T02:45:10;3.40;95.40
30534;DHT22;17318;52.390;9.754;2023-02-26T02:47:39;3.40;95.50
30534;DHT22;17318;52.390;9.754;2023-02-26T02:50:36;3.50;95.40
30534;DHT22;17318;52.390;9.754;2023-02-26T02:53:05;3.50;95.30
30534;DHT22;17318;52.390;9.754;2023-02-26T02:55:35;3.40;95.50
30534;DHT22;17318;52.390;9.754;2023-02-26T02:58:16;3.40;95.40
30534;DHT22;17318;52.390;9.754;2023-02-26T03:00:50;3.40;95.50
30534;DHT22;17318;52.390;9.754;2023-02-26T03:05:57;3.40;95.40
30534;DHT22;17318;52.390;9.754;2023-02-26T03:08:27;3.40;95.40
30534;DHT22;17318;52.390;9.754;2023-02-26T03:10:54;3.40;95.40
30534;DHT22;17318;52.390;9.754;2023-02-26T03:13:22;3.30;95.50
30534;DHT22;17318;52.390;9.754;2023-02-26T03:16:15;3.30;95.60
30534;DHT22;17318;52.390;9.754;2023-02-26T03:21:40;3.30;95.70
30534;DHT22;17318;52.390;9.754;2023-02-26T03:24:15;3.40;95.70
30534;DHT22;17318;52.390;9.754;2023-02-26T03:27:48;3.30;95.60
30534;DHT22;17318;52.390;9.754;2023-02-26T03:29:51;3.40;95.60
30534;DHT22;17318;52.390;9.754;2023-02-26T03:35:08;3.30;95.70
30534;DHT22;17318;52.390;9.754;2023-02-26T03:37:45;3.30;95.90
30534;DHT22;17318;52.390;9.754;2023-02-26T03:40:21;3.40;95.80
30534;DHT22;17318;52.390;9.754;2023-02-26T03:43:06;3.40;95.80
30534;DHT22;17318;52.390;9.754;2023-02-26T03:45:34;3.40;95.80
30534;DHT22;17318;52.390;9.754;2023-02-26T03:48:01;3.40;95.80
30534;DHT22;17318;52.390;9.754;2023-02-26T03:53:02;3.40;95.70
30534;DHT22;17318;52.390;9.754;2023-02-26T03:58:08;3.40;96.00
30534;DHT22;17318;52.390;9.754;2023-02-26T04:00:36;3.50;95.80
30534;DHT22;17318;52.390;9.754;2023-02-26T04:03:21;3.50;95.70
30534;DHT22;17318;52.390;9.754;2023-02-26T04:05:52;3.50;95.80
30534;DHT22;17318;52.390;9.754;2023-02-26T04:08:20;3.50;95.80
30534;DHT22;17318;52.390;9.754;2023-02-26T04:10:50;3.60;95.80
30534;DHT22;17318;52.390;9.754;2023-02-26T04:13:17;3.50;95.70
30534;DHT22;17318;52.390;9.754;2023-02-26T04:15:42;3.50;95.70
30534;DHT22;17318;52.390;9.754;2023-02-26T04:18:08;3.50;95.70
30534;DHT22;17318;52.390;9.754;2023-02-26T04:20:34;3.60;95.60
30534;DHT22;17318;52.390;9.754;2023-02-26T04:22:59;3.50;95.70
30534;DHT22;17318;52.390;9.754;2023-02-26T04:25:25;3.50;95.60
30534;DHT22;17318;52.390;9.754;2023-02-26T04:27:51;3.50;95.60
30534;DHT22;17318;52.390;9.754;2023-02-26T04:30:17;3.50;95.60
30534;DHT22;17318;52.390;9.754;2023-02-26T04:32:42;3.50;95.50
30534;DHT22;17318;52.390;9.754;2023-02-26T04:35:08;3.60;95.40
30534;DHT22;17318;52.390;9.754;2023-02-26T04:37:34;3.60;95.40
30534;DHT22;17318;52.390;9.754;2023-02-26T04:39:59;3.60;95.40
30534;DHT22;17318;52.390;9.754;2023-02-26T04:42:25;3.60;95.30
30534;DHT22;17318;52.390;9.754;2023-02-26T04:44:51;3.60;95.30
30534;DHT22;17318;52.390;9.754;2023-02-26T04:47:16;3.60;95.50
30534;DHT22;17318;52.390;9.754;2023-02-26T04:49:42;3.60;95.20
30534;DHT22;17318;52.390;9.754;2023-02-26T04:52:08;3.50;95.20
30534;DHT22;17318;52.390;9.754;2023-02-26T04:54:33;3.50;95.20
30534;DHT22;17318;52.390;9.754;2023-02-26T04:56:59;3.60;95.20
30534;DHT22;17318;52.390;9.754;2023-02-26T04:59:25;3.60;95.10
30534;DHT22;17318;52.390;9.754;2023-02-26T05:01:50;3.60;95.10
30534;DHT22;17318;52.390;9.754;2023-02-26T05:04:16;3.60;95.00
30534;DHT22;17318;52.390;9.754;2023-02-26T05:06:42;3.50;94.90
30534;DHT22;17318;52.390;9.754;2023-02-26T05:09:07;3.50;95.10
30534;DHT22;17318;52.390;9.754;2023-02-26T05:11:33;3.50;95.00
30534;DHT22;17318;52.390;9.754;2023-02-26T05:13:59;3.50;95.10
30534;DHT22;17318;52.390;9.754;2023-02-26T05:16:25;3.60;95.00
30534;DHT22;17318;52.390;9.754;2023-02-26T05:18:50;3.60;94.80
30534;DHT22;17318;52.390;9.754;2023-02-26T05:21:16;3.60;94.70
30534;DHT22;17318;52.390;9.754;2023-02-26T05:23:42;3.60;94.60
30534;DHT22;17318;52.390;9.754;2023-02-26T05:26:07;3.60;94.70
30534;DHT22;17318;52.390;9.754;2023-02-26T05:28:33;3.50;94.60
30534;DHT22;17318;52.390;9.754;2023-02-26T05:31:01;3.40;94.60
30534;DHT22;17318;52.390;9.754;2023-02-26T05:33:26;3.40;94.50
30534;DHT22;17318;52.390;9.754;2023-02-26T05:35:52;3.50;94.50
30534;DHT22;17318;52.390;9.754;2023-02-26T05:38:18;3.40;94.40
30534;DHT22;17318;52.390;9.754;2023-02-26T05:40:45;3.30;94.30
30534;DHT22;17318;52.390;9.754;2023-02-26T05:43:10;3.20;94.50
30534;DHT22;17318;52.390;9.754;2023-02-26T05:45:36;3.20;94.60
30534;DHT22;17318;52.390;9.754;2023-02-26T05:48:02;3.10;94.40
30534;DHT22;17318;52.390;9.754;2023-02-26T05:50:28;3.00;94.40
30534;DHT22;17318;52.390;9.754;2023-02-26T05:52:55;3.00;94.60
30534;DHT22;17318;52.390;9.754;2023-02-26T05:55:21;2.90;94.60
30534;DHT22;17318;52.390;9.754;2023-02-26T05:57:47;2.80;94.60
30534;DHT22;17318;52.390;9.754;2023-02-26T06:00:13;2.70;94.60
30534;DHT22;17318;52.390;9.754;2023-02-26T06:02:40;2.70;94.70
30534;DHT22;17318;52.390;9.754;2023-02-26T06:05:07;2.70;94.90
30534;DHT22;17318;52.390;9.754;2023-02-26T06:07:32;2.70;94.80
30534;DHT22;17318;52.390;9.754;2023-02-26T06:09:58;2.60;94.90
30534;DHT22;17318;52.390;9.754;2023-02-26T06:12:24;2.70;94.80
30534;DHT22;17318;52.390;9.754;2023-02-26T06:14:50;2.60;94.80
30534;DHT22;17318;52.390;9.754;2023-02-26T06:17:15;2.60;94.90
30534;DHT22;17318;52.390;9.754;2023-02-26T06:19:41;2.60;94.80
30534;DHT22;17318;52.390;9.754;2023-02-26T06:22:07;2.60;94.70
30534;DHT22;17318;52.390;9.754;2023-02-26T06:24:33;2.60;94.70
30534;DHT22;17318;52.390;9.754;2023-02-26T06:26:58;2.60;94.80
30534;DHT22;17318;52.390;9.754;2023-02-26T06:29:24;2.50;94.70
30534;DHT22;17318;52.390;9.754;2023-02-26T06:31:49;2.50;94.80
30534;DHT22;17318;52.390;9.754;2023-02-26T06:34:15;2.60;94.80
30534;DHT22;17318;52.390;9.754;2023-02-26T06:36:41;2.50;94.90
30534;DHT22;17318;52.390;9.754;2023-02-26T06:39:06;2.50;94.90
30534;DHT22;17318;52.390;9.754;2023-02-26T06:41:33;2.50;95.00
30534;DHT22;17318;52.390;9.754;2023-02-26T06:43:59;2.50;94.90
30534;DHT22;17318;52.390;9.754;2023-02-26T06:46:24;2.50;94.90
30534;DHT22;17318;52.390;9.754;2023-02-26T06:48:50;2.50;94.90
30534;DHT22;17318;52.390;9.754;2023-02-26T06:51:15;2.60;95.10
30534;DHT22;17318;52.390;9.754;2023-02-26T06:53:41;2.50;95.00
30534;DHT22;17318;52.390;9.754;2023-02-26T06:56:07;2.50;95.10
30534;DHT22;17318;52.390;9.754;2023-02-26T06:58:33;2.50;95.00
30534;DHT22;17318;52.390;9.754;2023-02-26T07:00:59;2.50;95.00
30534;DHT22;17318;52.390;9.754;2023-02-26T07:03:25;2.50;95.00
30534;DHT22;17318;52.390;9.754;2023-02-26T07:05:50;2.50;95.00
30534;DHT22;17318;52.390;9.754;2023-02-26T07:08:16;2.50;95.00
30534;DHT22;17318;52.390;9.754;2023-02-26T07:10:42;2.50;95.10
30534;DHT22;17318;52.390;9.754;2023-02-26T07:13:10;2.50;95.00
30534;DHT22;17318;52.390;9.754;2023-02-26T07:15:36;2.50;95.00
30534;DHT22;17318;52.390;9.754;2023-02-26T07:18:01;2.50;95.10
30534;DHT22;17318;52.390;9.754;2023-02-26T07:20:27;2.60;95.40
30534;DHT22;17318;52.390;9.754;2023-02-26T07:22:54;2.60;95.10
30534;DHT22;17318;52.390;9.754;2023-02-26T07:25:20;2.70;95.10
30534;DHT22;17318;52.390;9.754;2023-02-26T07:27:46;2.70;95.20
30534;DHT22;17318;52.390;9.754;2023-02-26T07:30:12;2.70;95.10
30534;DHT22;17318;52.390;9.754;2023-02-26T07:32:38;2.70;95.20
30534;DHT22;17318;52.390;9.754;2023-02-26T07:35:04;2.80;95.10
30534;DHT22;17318;52.390;9.754;2023-02-26T07:37:30;2.90;95.30
30534;DHT22;17318;52.390;9.754;2023-02-26T07:39:56;2.90;94.90
30534;DHT22;17318;52.390;9.754;2023-02-26T07:42:22;2.90;95.00
30534;DHT22;17318;52.390;9.754;2023-02-26T07:44:47;3.00;95.00
30534;DHT22;17318;52.390;9.754;2023-02-26T07:47:13;3.00;95.00
30534;DHT22;17318;52.390;9.754;2023-02-26T07:49:39;3.00;94.90
30534;DHT22;17318;52.390;9.754;2023-02-26T07:52:05;3.00;94.80
30534;DHT22;17318;52.390;9.754;2023-02-26T07:54:34;3.10;95.00
30534;DHT22;17318;52.390;9.754;2023-02-26T07:57:01;3.10;94.80
30534;DHT22;17318;52.390;9.754;2023-02-26T07:59:26;3.10;94.80
30534;DHT22;17318;52.390;9.754;2023-02-26T08:01:52;3.20;94.80
30534;DHT22;17318;52.390;9.754;2023-02-26T08:04:18;3.20;94.70
30534;DHT22;17318;52.390;9.754;2023-02-26T08:06:43;3.20;94.70
30534;DHT22;17318;52.390;9.754;2023-02-26T08:09:10;3.20;94.60
30534;DHT22;17318;52.390;9.754;2023-02-26T08:11:36;3.20;94.50
30534;DHT22;17318;52.390;9.754;2023-02-26T08:14:05;3.20;94.60
30534;DHT22;17318;52.390;9.754;2023-02-26T08:16:32;3.30;94.50
30534;DHT22;17318;52.390;9.754;2023-02-26T08:18:57;3.30;94.60
30534;DHT22;17318;52.390;9.754;2023-02-26T08:21:23;3.40;94.50
30534;DHT22;17318;52.390;9.754;2023-02-26T08:23:49;3.50;94.30
30534;DHT22;17318;52.390;9.754;2023-02-26T08:26:14;3.50;94.20
30534;DHT22;17318;52.390;9.754;2023-02-26T08:28:40;3.50;94.10
30534;DHT22;17318;52.390;9.754;2023-02-26T08:31:06;3.60;94.40
30534;DHT22;17318;52.390;9.754;2023-02-26T08:33:32;3.50;93.70
30534;DHT22;17318;52.390;9.754;2023-02-26T08:35:58;3.50;93.60
30534;DHT22;17318;52.390;9.754;2023-02-26T08:38:27;3.50;93.70
30534;DHT22;17318;52.390;9.754;2023-02-26T08:40:53;3.60;93.70
30534;DHT22;17318;52.390;9.754;2023-02-26T08:43:20;3.70;93.80
30534;DHT22;17318;52.390;9.754;2023-02-26T08:45:46;3.80;93.70
30534;DHT22;17318;52.390;9.754;2023-02-26T08:48:12;3.90;93.40
30534;DHT22;17318;52.390;9.754;2023-02-26T08:50:38;3.80;92.90
30534;DHT22;17318;52.390;9.754;2023-02-26T08:53:05;4.00;93.30
30534;DHT22;17318;52.390;9.754;2023-02-26T08:55:31;4.10;93.40
30534;DHT22;17318;52.390;9.754;2023-02-26T08:57:56;4.30;93.70
30534;DHT22;17318;52.390;9.754;2023-02-26T09:00:22;4.70;93.70
30534;DHT22;17318;52.390;9.754;2023-02-26T09:02:48;5.40;93.60
30534;DHT22;17318;52.390;9.754;2023-02-26T09:05:14;6.20;93.50
30534;DHT22;17318;52.390;9.754;2023-02-26T09:07:40;6.90;91.90
30534;DHT22;17318;52.390;9.754;2023-02-26T09:10:09;7.60;91.00
30534;DHT22;17318;52.390;9.754;2023-02-26T09:12:35;8.10;89.40
30534;DHT22;17318;52.390;9.754;2023-02-26T09:15:02;8.50;88.40
30534;DHT22;17318;52.390;9.754;2023-02-26T09:17:29;9.00;87.70
30534;DHT22;17318;52.390;9.754;2023-02-26T09:19:54;9.60;87.50
30534;DHT22;17318;52.390;9.754;2023-02-26T09:22:20;10.00;83.90
30534;DHT22;17318;52.390;9.754;2023-02-26T09:24:46;10.50;82.80
30534;DHT22;17318;52.390;9.754;2023-02-26T09:27:11;10.90;80.40
30534;DHT22;17318;52.390;9.754;2023-02-26T09:29:37;11.10;79.90
30534;DHT22;17318;52.390;9.754;2023-02-26T09:32:03;11.40;77.70
30534;DHT22;17318;52.390;9.754;2023-02-26T09:34:33;11.60;76.60
30534;DHT22;17318;52.390;9.754;2023-02-26T09:36:59;12.20;75.40
30534;DHT22;17318;52.390;9.754;2023-02-26T09:39:25;12.50;74.30
30534;DHT22;17318;52.390;9.754;2023-02-26T09:41:54;12.80;74.00
30534;DHT22;17318;52.390;9.754;2023-02-26T09:44:33;13.30;71.70
30534;DHT22;17318;52.390;9.754;2023-02-26T09:52:54;14.20;66.60
30534;DHT22;17318;52.390;9.754;2023-02-26T09:55:43;14.70;63.40
30534;DHT22;17318;52.390;9.754;2023-02-26T09:58:29;15.10;62.10
30534;DHT22;17318;52.390;9.754;2023-02-26T10:04:24;15.80;58.00
30534;DHT22;17318;52.390;9.754;2023-02-26T10:12:32;16.90;53.80
30534;DHT22;17318;52.390;9.754;2023-02-26T10:15:22;17.30;52.70
30534;DHT22;17318;52.390;9.754;2023-02-26T10:26:00;20.00;45.80
30534;DHT22;17318;52.390;9.754;2023-02-26T10:31:45;20.60;43.70
30534;DHT22;17318;52.390;9.754;2023-02-26T10:34:38;20.60;43.20
30534;DHT22;17318;52.390;9.754;2023-02-26T10:40:23;21.10;41.20
30534;DHT22;17318;52.390;9.754;2023-02-26T10:42:57;21.00;39.80
30534;DHT22;17318;52.390;9.754;2023-02-26T10:51:16;19.90;40.80
30534;DHT22;17318;52.390;9.754;2023-02-26T10:53:58;20.60;40.50
30534;DHT22;17318;52.390;9.754;2023-02-26T10:56:30;20.90;39.00
30534;DHT22;17318;52.390;9.754;2023-02-26T10:58:56;20.90;39.00
30534;DHT22;17318;52.390;9.754;2023-02-26T11:01:24;21.10;38.50
30534;DHT22;17318;52.390;9.754;2023-02-26T11:03:56;21.60;39.00
30534;DHT22;17318;52.390;9.754;2023-02-26T11:06:27;21.80;37.50
30534;DHT22;17318;52.390;9.754;2023-02-26T11:08:56;21.80;36.60
30534;DHT22;17318;52.390;9.754;2023-02-26T11:11:41;21.90;36.70
30534;DHT22;17318;52.390;9.754;2023-02-26T11:14:07;21.90;35.50
30534;DHT22;17318;52.390;9.754;2023-02-26T11:16:34;22.00;35.30
30534;DHT22;17318;52.390;9.754;2023-02-26T11:19:00;21.80;34.60
30534;DHT22;17318;52.390;9.754;2023-02-26T11:21:29;21.30;35.70
30534;DHT22;17318;52.390;9.754;2023-02-26T11:24:01;21.40;34.50
30534;DHT22;17318;52.390;9.754;2023-02-26T11:26:31;21.40;34.00
30534;DHT22;17318;52.390;9.754;2023-02-26T11:28:58;21.80;34.60
30534;DHT22;17318;52.390;9.754;2023-02-26T11:31:25;21.20;33.50
30534;DHT22;17318;52.390;9.754;2023-02-26T11:33:53;20.60;33.70
30534;DHT22;17318;52.390;9.754;2023-02-26T11:36:28;20.50;35.30
30534;DHT22;17318;52.390;9.754;2023-02-26T11:38:57;20.40;34.30
30534;DHT22;17318;52.390;9.754;2023-02-26T11:41:24;20.30;33.90
30534;DHT22;17318;52.390;9.754;2023-02-26T11:44:00;20.30;34.10
30534;DHT22;17318;52.390;9.754;2023-02-26T11:46:27;20.50;33.70
30534;DHT22;17318;52.390;9.754;2023-02-26T11:48:54;20.20;33.70
30534;DHT22;17318;52.390;9.754;2023-02-26T11:51:25;19.60;34.30
30534;DHT22;17318;52.390;9.754;2023-02-26T11:53:56;19.10;34.20
30534;DHT22;17318;52.390;9.754;2023-02-26T11:56:37;18.10;34.30
30534;DHT22;17318;52.390;9.754;2023-02-26T11:59:12;17.20;35.00
30534;DHT22;17318;52.390;9.754;2023-02-26T12:01:41;16.60;36.30
30534;DHT22;17318;52.390;9.754;2023-02-26T12:04:11;15.90;36.70
30534;DHT22;17318;52.390;9.754;2023-02-26T12:06:38;15.10;36.70
30534;DHT22;17318;52.390;9.754;2023-02-26T12:09:08;14.60;37.30
30534;DHT22;17318;52.390;9.754;2023-02-26T12:17:19;13.70;38.70
30534;DHT22;17318;52.390;9.754;2023-02-26T12:20:23;13.40;38.30
30534;DHT22;17318;52.390;9.754;2023-02-26T12:28:47;12.60;37.60
30534;DHT22;17318;52.390;9.754;2023-02-26T12:59:01;10.80;41.50
30534;DHT22;17318;52.390;9.754;2023-02-26T13:05:14;10.90;41.50
30534;DHT22;17318;52.390;9.754;2023-02-26T13:10:37;10.70;42.20
30534;DHT22;17318;52.390;9.754;2023-02-26T13:21:37;10.70;41.70
30534;DHT22;17318;52.390;9.754;2023-02-26T13:24:20;10.50;41.60
30534;DHT22;17318;52.390;9.754;2023-02-26T13:26:48;10.40;41.70
30534;DHT22;17318;52.390;9.754;2023-02-26T13:29:22;10.40;42.20
30534;DHT22;17318;52.390;9.754;2023-02-26T13:31:56;10.40;42.00
30534;DHT22;17318;52.390;9.754;2023-02-26T13:37:30;10.40;41.60
30534;DHT22;17318;52.390;9.754;2023-02-26T13:51:38;10.20;40.50
30534;DHT22;17318;52.390;9.754;2023-02-26T13:59:23;10.10;40.60
30534;DHT22;17318;52.390;9.754;2023-02-26T14:01:53;10.10;42.40
30534;DHT22;17318;52.390;9.754;2023-02-26T14:06:47;10.00;40.90
30534;DHT22;17318;52.390;9.754;2023-02-26T14:14:23;9.70;42.10
30534;DHT22;17318;52.390;9.754;2023-02-26T14:19:32;9.70;42.60
30534;DHT22;17318;52.390;9.754;2023-02-26T14:24:53;9.70;41.70
30534;DHT22;17318;52.390;9.754;2023-02-26T14:30:05;9.40;42.60
30534;DHT22;17318;52.390;9.754;2023-02-26T14:35:18;9.20;42.50
30534;DHT22;17318;52.390;9.754;2023-02-26T14:37:55;9.00;42.40
30534;DHT22;17318;52.390;9.754;2023-02-26T14:40:23;9.10;43.00
30534;DHT22;17318;52.390;9.754;2023-02-26T14:43:01;9.10;43.20
30534;DHT22;17318;52.390;9.754;2023-02-26T14:45:37;9.10;43.30
30534;DHT22;17318;52.390;9.754;2023-02-26T14:48:11;9.10;43.70
30534;DHT22;17318;52.390;9.754;2023-02-26T14:56:23;9.10;44.60
30534;DHT22;17318;52.390;9.754;2023-02-26T14:59:27;9.10;45.10
30534;DHT22;17318;52.390;9.754;2023-02-26T15:05:01;9.10;45.60
30534;DHT22;17318;52.390;9.754;2023-02-26T15:16:57;8.80;47.00
30534;DHT22;17318;52.390;9.754;2023-02-26T15:18:58;8.80;47.20
30534;DHT22;17318;52.390;9.754;2023-02-26T15:21:44;8.80;47.30
30534;DHT22;17318;52.390;9.754;2023-02-26T15:24:13;8.70;47.60
30534;DHT22;17318;52.390;9.754;2023-02-26T15:26:53;8.60;48.00
30534;DHT22;17318;52.390;9.754;2023-02-26T15:29:25;8.50;48.20
30534;DHT22;17318;52.390;9.754;2023-02-26T15:31:59;8.40;48.60
30534;DHT22;17318;52.390;9.754;2023-02-26T15:34:28;8.40;48.90
30534;DHT22;17318;52.390;9.754;2023-02-26T15:36:56;8.40;49.00
30534;DHT22;17318;52.390;9.754;2023-02-26T15:39:24;8.50;49.00
30534;DHT22;17318;52.390;9.754;2023-02-26T15:41:51;8.50;49.00
30534;DHT22;17318;52.390;9.754;2023-02-26T15:44:25;8.40;48.90
30534;DHT22;17318;52.390;9.754;2023-02-26T15:47:00;8.30;49.00
30534;DHT22;17318;52.390;9.754;2023-02-26T15:49:32;8.30;49.30
30534;DHT22;17318;52.390;9.754;2023-02-26T15:51:59;8.30;49.50
30534;DHT22;17318;52.390;9.754;2023-02-26T15:54:38;8.30;49.70
30534;DHT22;17318;52.390;9.754;2023-02-26T15:57:04;8.30;49.80
30534;DHT22;17318;52.390;9.754;2023-02-26T15:59:31;8.30;50.00
30534;DHT22;17318;52.390;9.754;2023-02-26T16:02:00;8.30;50.30
30534;DHT22;17318;52.390;9.754;2023-02-26T16:04:26;8.20;50.40
30534;DHT22;17318;52.390;9.754;2023-02-26T16:06:56;8.20;50.50
30534;DHT22;17318;52.390;9.754;2023-02-26T16:09:38;8.30;50.80
30534;DHT22;17318;52.390;9.754;2023-02-26T16:12:11;8.20;50.80
30534;DHT22;17318;52.390;9.754;2023-02-26T16:14:39;8.30;51.20
30534;DHT22;17318;52.390;9.754;2023-02-26T16:17:07;8.20;51.20
30534;DHT22;17318;52.390;9.754;2023-02-26T16:19:39;8.10;51.40
30534;DHT22;17318;52.390;9.754;2023-02-26T16:22:25;8.10;51.60
30534;DHT22;17318;52.390;9.754;2023-02-26T16:25:03;8.10;51.50
30534;DHT22;17318;52.390;9.754;2023-02-26T16:27:30;8.10;51.70
30534;DHT22;17318;52.390;9.754;2023-02-26T16:29:59;8.00;51.70
30534;DHT22;17318;52.390;9.754;2023-02-26T16:32:29;8.00;52.00
30534;DHT22;17318;52.390;9.754;2023-02-26T16:34:59;8.00;52.10
30534;DHT22;17318;52.390;9.754;2023-02-26T16:40:25;8.10;52.40
30534;DHT22;17318;52.390;9.754;2023-02-26T16:45:41;8.00;52.90
30534;DHT22;17318;52.390;9.754;2023-02-26T16:48:24;7.90;53.10
30534;DHT22;17318;52.390;9.754;2023-02-26T16:51:13;8.00;53.50
30534;DHT22;17318;52.390;9.754;2023-02-26T16:54:03;7.90;53.80
30534;DHT22;17318;52.390;9.754;2023-02-26T16:56:32;7.90;54.00
30534;DHT22;17318;52.390;9.754;2023-02-26T16:59:21;7.80;54.40
30534;DHT22;17318;52.390;9.754;2023-02-26T17:01:52;7.80;54.70
30534;DHT22;17318;52.390;9.754;2023-02-26T17:04:22;7.80;55.10
30534;DHT22;17318;52.390;9.754;2023-02-26T17:06:49;7.80;55.30
30534;DHT22;17318;52.390;9.754;2023-02-26T17:09:38;7.70;55.50
30534;DHT22;17318;52.390;9.754;2023-02-26T17:12:20;7.80;55.60
30534;DHT22;17318;52.390;9.754;2023-02-26T17:14:52;7.80;55.90
30534;DHT22;17318;52.390;9.754;2023-02-26T17:17:19;7.80;56.20
30534;DHT22;17318;52.390;9.754;2023-02-26T17:19:44;7.80;56.10
30534;DHT22;17318;52.390;9.754;2023-02-26T17:22:18;7.80;56.40
30534;DHT22;17318;52.390;9.754;2023-02-26T17:24:45;7.80;56.50
30534;DHT22;17318;52.390;9.754;2023-02-26T17:27:28;7.70;56.90
30534;DHT22;17318;52.390;9.754;2023-02-26T17:29:56;7.70;57.00
30534;DHT22;17318;52.390;9.754;2023-02-26T17:32:23;7.60;57.10
30534;DHT22;17318;52.390;9.754;2023-02-26T17:34:51;7.60;58.00
30534;DHT22;17318;52.390;9.754;2023-02-26T17:37:17;7.60;57.60
30534;DHT22;17318;52.390;9.754;2023-02-26T17:39:43;7.60;57.80
30534;DHT22;17318;52.390;9.754;2023-02-26T17:42:14;7.60;58.00
30534;DHT22;17318;52.390;9.754;2023-02-26T17:44:41;7.50;58.00
30534;DHT22;17318;52.390;9.754;2023-02-26T17:47:15;7.50;58.10
30534;DHT22;17318;52.390;9.754;2023-02-26T17:49:41;7.50;58.40
30534;DHT22;17318;52.390;9.754;2023-02-26T17:52:07;7.60;58.80
30534;DHT22;17318;52.390;9.754;2023-02-26T17:54:33;7.60;58.90
30534;DHT22;17318;52.390;9.754;2023-02-26T17:56:58;7.70;59.10
30534;DHT22;17318;52.390;9.754;2023-02-26T17:59:24;7.50;59.10
30534;DHT22;17318;52.390;9.754;2023-02-26T18:01:51;7.50;59.30
30534;DHT22;17318;52.390;9.754;2023-02-26T18:04:18;7.50;59.50
30534;DHT22;17318;52.390;9.754;2023-02-26T18:06:43;7.50;59.60
30534;DHT22;17318;52.390;9.754;2023-02-26T18:09:11;7.50;59.70
30534;DHT22;17318;52.390;9.754;2023-02-26T18:11:37;7.50;59.70
30534;DHT22;17318;52.390;9.754;2023-02-26T18:14:04;7.50;59.90
30534;DHT22;17318;52.390;9.754;2023-02-26T18:16:39;7.40;60.40
30534;DHT22;17318;52.390;9.754;2023-02-26T18:19:06;7.40;60.20
30534;DHT22;17318;52.390;9.754;2023-02-26T18:21:32;7.40;60.60
30534;DHT22;17318;52.390;9.754;2023-02-26T18:23:58;7.40;61.10
30534;DHT22;17318;52.390;9.754;2023-02-26T18:26:28;7.30;61.10
30534;DHT22;17318;52.390;9.754;2023-02-26T18:28:55;7.30;61.10
30534;DHT22;17318;52.390;9.754;2023-02-26T18:31:22;7.20;61.10
30534;DHT22;17318;52.390;9.754;2023-02-26T18:33:49;7.20;61.00
30534;DHT22;17318;52.390;9.754;2023-02-26T18:36:22;7.10;61.10
30534;DHT22;17318;52.390;9.754;2023-02-26T18:38:49;7.10;61.80
30534;DHT22;17318;52.390;9.754;2023-02-26T18:41:14;7.10;62.00
30534;DHT22;17318;52.390;9.754;2023-02-26T18:43:40;7.10;62.30
30534;DHT22;17318;52.390;9.754;2023-02-26T18:46:07;7.00;62.50
30534;DHT22;17318;52.390;9.754;2023-02-26T18:48:33;7.00;63.50
30534;DHT22;17318;52.390;9.754;2023-02-26T18:50:59;6.90;63.50
30534;DHT22;17318;52.390;9.754;2023-02-26T18:53:25;6.90;63.20
30534;DHT22;17318;52.390;9.754;2023-02-26T18:55:53;6.90;63.80
30534;DHT22;17318;52.390;9.754;2023-02-26T18:58:20;7.00;64.00
30534;DHT22;17318;52.390;9.754;2023-02-26T19:00:46;6.90;64.00
30534;DHT22;17318;52.390;9.754;2023-02-26T19:03:11;6.90;64.40
30534;DHT22;17318;52.390;9.754;2023-02-26T19:05:37;7.00;65.40
30534;DHT22;17318;52.390;9.754;2023-02-26T19:08:04;6.80;65.30
30534;DHT22;17318;52.390;9.754;2023-02-26T19:10:30;6.70;66.10
30534;DHT22;17318;52.390;9.754;2023-02-26T19:12:56;6.70;66.30
30534;DHT22;17318;52.390;9.754;2023-02-26T19:15:23;6.70;66.40
30534;DHT22;17318;52.390;9.754;2023-02-26T19:17:49;6.70;67.20
30534;DHT22;17318;52.390;9.754;2023-02-26T19:20:15;6.70;67.70